Faneromeni — SVKG — position and weather

sailwx.info

Track history (hours):
 
Tides and Currents Weather Stations Pressure Air Temp Water Temp Dewpoint Dewpoint Depression Visibility Wind Speed Wind Dir Waves Ship Positions

Faneromeni

Last reported at 2017-Dec-12 10:34 UTC. Time now 2017-Dec-15 15:49 UTC.
Position N 54°44' E 012°39'.

Length 230 m; draft 13 m.

Type: Ship. MMSI: 240576000.

Date/timePositionNaut miles runAvg speedWind from/ knotsBaromVisibWave heightAir tempDewpointWater temp
2017-Dec-12 10:34N 54°44' E 012°39'112.4
2017-Dec-12 10:29N 54°44' E 012°37'2211.9
2017-Dec-12 08:38N 54°27' E 012°12'1411.9
2017-Dec-12 07:27N 54°25' E 011°48'1112.6
2017-Dec-12 06:36N 54°29' E 011°31'112.8
2017-Dec-12 06:30N 54°30' E 011°29'612.9
2017-Dec-12 06:00N 54°32' E 011°19'612.8
2017-Dec-12 05:30N 54°35' E 011°09'612.2
2017-Dec-12 05:00N 54°36' E 010°59'612.7
2017-Dec-12 04:30N 54°39' E 010°50'5 9.8
2017-Dec-12 04:00N 54°44' E 010°47'510.8
2017-Dec-12 03:30N 54°49' E 010°50'510.0
2017-Dec-12 03:00N 54°54' E 010°51'510.2
2017-Dec-12 02:30N 54°58' E 010°57'510.8
2017-Dec-12 02:00N 55°03' E 010°60'611.3
2017-Dec-12 01:30N 55°09' E 010°60'610.8
2017-Dec-12 00:58N 55°13' E 011°06'511.6
2017-Dec-12 00:30N 55°18' E 011°02'11710.3
2017-Dec-11 13:10N 57°14' E 011°33'213.1
2017-Dec-11 13:00N 57°16' E 011°32'613.1
2017-Dec-11 12:30N 57°22' E 011°28'713.2
2017-Dec-11 12:00N 57°28' E 011°22'713.2
2017-Dec-11 11:30N 57°33' E 011°14'713.2
2017-Dec-11 11:00N 57°37' E 011°04'713.1
2017-Dec-11 10:30N 57°42' E 010°55'612.8
2017-Dec-11 10:00N 57°46' E 010°47'612.7
2017-Dec-11 09:30N 57°49' E 010°36'612.8
2017-Dec-11 09:00N 57°49' E 010°24'712.7
2017-Dec-11 08:30N 57°49' E 010°12'9913.1
2017-Dec-11 00:58N 57°37' E 007°08'812.7
2017-Dec-11 00:18N 57°37' E 006°52'412.8
2017-Dec-11 00:00N 57°37' E 006°45'1312.6
2017-Dec-10 22:57N 57°37' E 006°21'  
Track history (hours):
 
Tides and Currents Weather Stations Pressure Air Temp Water Temp Dewpoint Dewpoint Depression Visibility Wind Speed Wind Dir Waves Ship Positions

Faneromeni

Last reported at 2017-Dec-12 10:34 UTC. Time now 2017-Dec-15 15:49 UTC.
Position N 54°44' E 012°39'.

Length 230 m; draft 13 m.

Type: Ship. MMSI: 240576000.

Date/timePositionNaut miles runAvg speedWind from/ knotsBaromVisibWave heightAir tempDewpointWater temp
2017-Dec-12 10:34N 54°44' E 012°39'112.4
2017-Dec-12 10:29N 54°44' E 012°37'2211.9
2017-Dec-12 08:38N 54°27' E 012°12'1411.9
2017-Dec-12 07:27N 54°25' E 011°48'1112.6
2017-Dec-12 06:36N 54°29' E 011°31'112.8
2017-Dec-12 06:30N 54°30' E 011°29'612.9
2017-Dec-12 06:00N 54°32' E 011°19'612.8
2017-Dec-12 05:30N 54°35' E 011°09'612.2
2017-Dec-12 05:00N 54°36' E 010°59'612.7
2017-Dec-12 04:30N 54°39' E 010°50'5 9.8
2017-Dec-12 04:00N 54°44' E 010°47'510.8
2017-Dec-12 03:30N 54°49' E 010°50'510.0
2017-Dec-12 03:00N 54°54' E 010°51'510.2
2017-Dec-12 02:30N 54°58' E 010°57'510.8
2017-Dec-12 02:00N 55°03' E 010°60'611.3
2017-Dec-12 01:30N 55°09' E 010°60'610.8
2017-Dec-12 00:58N 55°13' E 011°06'511.6
2017-Dec-12 00:30N 55°18' E 011°02'11710.3
2017-Dec-11 13:10N 57°14' E 011°33'213.1
2017-Dec-11 13:00N 57°16' E 011°32'613.1
2017-Dec-11 12:30N 57°22' E 011°28'713.2
2017-Dec-11 12:00N 57°28' E 011°22'713.2
2017-Dec-11 11:30N 57°33' E 011°14'713.2
2017-Dec-11 11:00N 57°37' E 011°04'713.1
2017-Dec-11 10:30N 57°42' E 010°55'612.8
2017-Dec-11 10:00N 57°46' E 010°47'612.7
2017-Dec-11 09:30N 57°49' E 010°36'612.8
2017-Dec-11 09:00N 57°49' E 010°24'712.7
2017-Dec-11 08:30N 57°49' E 010°12'9913.1
2017-Dec-11 00:58N 57°37' E 007°08'812.7
2017-Dec-11 00:18N 57°37' E 006°52'412.8
2017-Dec-11 00:00N 57°37' E 006°45'1312.6
2017-Dec-10 22:57N 57°37' E 006°21'  

Dump ship's entire track history